sensor_id;sensor_type;location;lat;lon;timestamp;temperature;humidity
22562;DHT22;11447;50.562;8.504;2022-12-05T00:00:19;3.50;99.90
22562;DHT22;11447;50.562;8.504;2022-12-05T00:02:46;3.50;99.90
22562;DHT22;11447;50.562;8.504;2022-12-05T00:05:15;3.40;99.90
22562;DHT22;11447;50.562;8.504;2022-12-05T00:07:41;3.40;99.90
22562;DHT22;11447;50.562;8.504;2022-12-05T00:10:08;3.40;99.90
22562;DHT22;11447;50.562;8.504;2022-12-05T00:12:39;3.40;99.90
22562;DHT22;11447;50.562;8.504;2022-12-05T00:15:08;3.50;99.90
22562;DHT22;11447;50.562;8.504;2022-12-05T00:17:38;3.50;99.90
22562;DHT22;11447;50.562;8.504;2022-12-05T00:20:06;3.40;99.90
22562;DHT22;11447;50.562;8.504;2022-12-05T00:22:36;3.40;99.90
22562;DHT22;11447;50.562;8.504;2022-12-05T00:25:06;3.40;99.90
22562;DHT22;11447;50.562;8.504;2022-12-05T00:27:33;3.30;99.90
22562;DHT22;11447;50.562;8.504;2022-12-05T00:30:00;3.30;99.90
22562;DHT22;11447;50.562;8.504;2022-12-05T00:32:27;3.40;99.90
22562;DHT22;11447;50.562;8.504;2022-12-05T00:34:54;3.40;99.90
22562;DHT22;11447;50.562;8.504;2022-12-05T00:37:21;3.40;99.90
22562;DHT22;11447;50.562;8.504;2022-12-05T00:39:49;3.40;99.90
22562;DHT22;11447;50.562;8.504;2022-12-05T00:42:16;3.40;99.90
22562;DHT22;11447;50.562;8.504;2022-12-05T00:44:47;3.40;99.90
22562;DHT22;11447;50.562;8.504;2022-12-05T00:47:14;3.50;99.90
22562;DHT22;11447;50.562;8.504;2022-12-05T00:49:43;3.40;99.90
22562;DHT22;11447;50.562;8.504;2022-12-05T00:52:09;3.40;99.90
22562;DHT22;11447;50.562;8.504;2022-12-05T00:54:36;3.50;99.90
22562;DHT22;11447;50.562;8.504;2022-12-05T00:57:04;3.40;99.90
22562;DHT22;11447;50.562;8.504;2022-12-05T00:59:30;3.40;99.90
22562;DHT22;11447;50.562;8.504;2022-12-05T01:01:57;3.40;99.90
22562;DHT22;11447;50.562;8.504;2022-12-05T01:04:23;3.40;99.90
22562;DHT22;11447;50.562;8.504;2022-12-05T01:06:52;3.50;99.90
22562;DHT22;11447;50.562;8.504;2022-12-05T01:09:20;3.50;99.90
22562;DHT22;11447;50.562;8.504;2022-12-05T01:11:47;3.60;99.90
22562;DHT22;11447;50.562;8.504;2022-12-05T01:14:14;3.50;99.90
22562;DHT22;11447;50.562;8.504;2022-12-05T01:16:44;3.60;99.90
22562;DHT22;11447;50.562;8.504;2022-12-05T01:19:13;3.60;99.90
22562;DHT22;11447;50.562;8.504;2022-12-05T01:21:40;3.60;99.90
22562;DHT22;11447;50.562;8.504;2022-12-05T01:24:08;3.60;99.90
22562;DHT22;11447;50.562;8.504;2022-12-05T01:26:34;3.60;99.90
22562;DHT22;11447;50.562;8.504;2022-12-05T01:29:01;3.60;99.90
22562;DHT22;11447;50.562;8.504;2022-12-05T01:31:32;3.60;99.90
22562;DHT22;11447;50.562;8.504;2022-12-05T01:34:00;3.60;99.90
22562;DHT22;11447;50.562;8.504;2022-12-05T01:36:27;3.60;99.90
22562;DHT22;11447;50.562;8.504;2022-12-05T01:38:56;3.70;99.90
22562;DHT22;11447;50.562;8.504;2022-12-05T01:41:27;3.70;99.90
22562;DHT22;11447;50.562;8.504;2022-12-05T01:46:24;3.60;99.90
22562;DHT22;11447;50.562;8.504;2022-12-05T01:48:52;3.70;99.90
22562;DHT22;11447;50.562;8.504;2022-12-05T01:51:19;3.70;99.90
22562;DHT22;11447;50.562;8.504;2022-12-05T01:53:45;3.60;99.90
22562;DHT22;11447;50.562;8.504;2022-12-05T01:56:12;3.70;99.90
22562;DHT22;11447;50.562;8.504;2022-12-05T01:58:39;3.70;99.90
22562;DHT22;11447;50.562;8.504;2022-12-05T02:01:07;3.70;99.90
22562;DHT22;11447;50.562;8.504;2022-12-05T02:03:38;3.70;99.90
22562;DHT22;11447;50.562;8.504;2022-12-05T02:06:08;3.60;99.90
22562;DHT22;11447;50.562;8.504;2022-12-05T02:08:37;3.70;99.90
22562;DHT22;11447;50.562;8.504;2022-12-05T02:11:05;3.70;99.90
22562;DHT22;11447;50.562;8.504;2022-12-05T02:16:12;3.70;99.90
22562;DHT22;11447;50.562;8.504;2022-12-05T02:27:12;3.70;99.90
22562;DHT22;11447;50.562;8.504;2022-12-05T02:31:55;3.70;99.90
22562;DHT22;11447;50.562;8.504;2022-12-05T02:34:32;3.70;99.90
22562;DHT22;11447;50.562;8.504;2022-12-05T02:37:08;3.70;99.90
22562;DHT22;11447;50.562;8.504;2022-12-05T02:42:07;3.60;99.90
22562;DHT22;11447;50.562;8.504;2022-12-05T02:47:04;3.60;99.90
22562;DHT22;11447;50.562;8.504;2022-12-05T02:49:32;3.50;99.90
22562;DHT22;11447;50.562;8.504;2022-12-05T02:52:01;3.60;99.90
22562;DHT22;11447;50.562;8.504;2022-12-05T02:54:30;3.60;99.90
22562;DHT22;11447;50.562;8.504;2022-12-05T02:57:00;3.60;99.90
22562;DHT22;11447;50.562;8.504;2022-12-05T02:59:31;3.50;99.90
22562;DHT22;11447;50.562;8.504;2022-12-05T03:01:57;3.50;99.90
22562;DHT22;11447;50.562;8.504;2022-12-05T03:04:24;3.50;99.90
22562;DHT22;11447;50.562;8.504;2022-12-05T03:14:30;3.40;99.90
22562;DHT22;11447;50.562;8.504;2022-12-05T03:16:59;3.40;99.90
22562;DHT22;11447;50.562;8.504;2022-12-05T03:19:35;3.40;99.90
22562;DHT22;11447;50.562;8.504;2022-12-05T03:22:12;3.30;99.90
22562;DHT22;11447;50.562;8.504;2022-12-05T03:24:41;3.30;99.90
22562;DHT22;11447;50.562;8.504;2022-12-05T03:29:43;3.40;99.90
22562;DHT22;11447;50.562;8.504;2022-12-05T03:37:12;3.40;99.90
22562;DHT22;11447;50.562;8.504;2022-12-05T03:39:40;3.40;99.90
22562;DHT22;11447;50.562;8.504;2022-12-05T03:42:11;3.40;99.90
22562;DHT22;11447;50.562;8.504;2022-12-05T03:47:07;3.40;99.90
22562;DHT22;11447;50.562;8.504;2022-12-05T03:49:41;3.30;99.90
22562;DHT22;11447;50.562;8.504;2022-12-05T03:52:14;3.30;99.90
22562;DHT22;11447;50.562;8.504;2022-12-05T03:54:53;3.40;99.90
22562;DHT22;11447;50.562;8.504;2022-12-05T04:02:43;3.40;99.90
22562;DHT22;11447;50.562;8.504;2022-12-05T04:07:43;3.40;99.90
22562;DHT22;11447;50.562;8.504;2022-12-05T04:10:15;3.40;99.90
22562;DHT22;11447;50.562;8.504;2022-12-05T04:12:43;3.40;99.90
22562;DHT22;11447;50.562;8.504;2022-12-05T04:15:15;3.40;99.90
22562;DHT22;11447;50.562;8.504;2022-12-05T04:17:59;3.30;99.90
22562;DHT22;11447;50.562;8.504;2022-12-05T04:20:31;3.40;99.90
22562;DHT22;11447;50.562;8.504;2022-12-05T04:23:21;3.30;99.90
22562;DHT22;11447;50.562;8.504;2022-12-05T04:25:55;3.30;99.90
22562;DHT22;11447;50.562;8.504;2022-12-05T04:28:35;3.40;99.90
22562;DHT22;11447;50.562;8.504;2022-12-05T04:31:17;3.40;99.90
22562;DHT22;11447;50.562;8.504;2022-12-05T04:36:23;3.30;99.90
22562;DHT22;11447;50.562;8.504;2022-12-05T04:41:45;3.30;99.90
22562;DHT22;11447;50.562;8.504;2022-12-05T04:44:13;3.30;99.90
22562;DHT22;11447;50.562;8.504;2022-12-05T04:46:44;3.30;99.90
22562;DHT22;11447;50.562;8.504;2022-12-05T04:49:15;3.30;99.90
22562;DHT22;11447;50.562;8.504;2022-12-05T04:51:42;3.30;99.90
22562;DHT22;11447;50.562;8.504;2022-12-05T04:54:14;3.30;99.90
22562;DHT22;11447;50.562;8.504;2022-12-05T04:56:43;3.30;99.90
22562;DHT22;11447;50.562;8.504;2022-12-05T04:59:14;3.30;99.90
22562;DHT22;11447;50.562;8.504;2022-12-05T05:01:42;3.30;99.90
22562;DHT22;11447;50.562;8.504;2022-12-05T05:04:16;3.30;99.90
22562;DHT22;11447;50.562;8.504;2022-12-05T05:06:47;3.30;99.90
22562;DHT22;11447;50.562;8.504;2022-12-05T05:09:14;3.30;99.90
22562;DHT22;11447;50.562;8.504;2022-12-05T05:11:40;3.30;99.90
22562;DHT22;11447;50.562;8.504;2022-12-05T05:14:07;3.30;99.90
22562;DHT22;11447;50.562;8.504;2022-12-05T05:16:35;3.30;99.90
22562;DHT22;11447;50.562;8.504;2022-12-05T05:19:02;3.30;99.90
22562;DHT22;11447;50.562;8.504;2022-12-05T05:21:30;3.30;99.90
22562;DHT22;11447;50.562;8.504;2022-12-05T05:23:57;3.30;99.90
22562;DHT22;11447;50.562;8.504;2022-12-05T05:26:25;3.30;99.90
22562;DHT22;11447;50.562;8.504;2022-12-05T05:28:52;3.40;99.90
22562;DHT22;11447;50.562;8.504;2022-12-05T05:31:19;3.40;99.90
22562;DHT22;11447;50.562;8.504;2022-12-05T05:33:49;3.40;99.90
22562;DHT22;11447;50.562;8.504;2022-12-05T05:36:21;3.30;99.90
22562;DHT22;11447;50.562;8.504;2022-12-05T05:38:49;3.30;99.90
22562;DHT22;11447;50.562;8.504;2022-12-05T05:43:43;3.30;99.90
22562;DHT22;11447;50.562;8.504;2022-12-05T05:46:10;3.30;99.90
22562;DHT22;11447;50.562;8.504;2022-12-05T05:48:36;3.40;99.90
22562;DHT22;11447;50.562;8.504;2022-12-05T05:51:04;3.40;99.90
22562;DHT22;11447;50.562;8.504;2022-12-05T05:53:36;3.40;99.90
22562;DHT22;11447;50.562;8.504;2022-12-05T05:56:03;3.40;99.90
22562;DHT22;11447;50.562;8.504;2022-12-05T05:58:30;3.50;99.90
22562;DHT22;11447;50.562;8.504;2022-12-05T06:03:33;3.50;99.90
22562;DHT22;11447;50.562;8.504;2022-12-05T06:06:00;3.50;99.90
22562;DHT22;11447;50.562;8.504;2022-12-05T06:08:28;3.50;99.90
22562;DHT22;11447;50.562;8.504;2022-12-05T06:10:55;3.50;99.90
22562;DHT22;11447;50.562;8.504;2022-12-05T06:13:24;3.60;99.90
22562;DHT22;11447;50.562;8.504;2022-12-05T06:15:51;3.50;99.90
22562;DHT22;11447;50.562;8.504;2022-12-05T06:18:17;3.50;99.90
22562;DHT22;11447;50.562;8.504;2022-12-05T06:20:51;3.50;99.90
22562;DHT22;11447;50.562;8.504;2022-12-05T06:23:20;3.50;99.90
22562;DHT22;11447;50.562;8.504;2022-12-05T06:25:48;3.50;99.90
22562;DHT22;11447;50.562;8.504;2022-12-05T06:28:15;3.40;99.90
22562;DHT22;11447;50.562;8.504;2022-12-05T06:30:42;3.40;99.90
22562;DHT22;11447;50.562;8.504;2022-12-05T06:33:09;3.50;99.90
22562;DHT22;11447;50.562;8.504;2022-12-05T06:35:38;3.50;99.90
22562;DHT22;11447;50.562;8.504;2022-12-05T06:38:05;3.50;99.90
22562;DHT22;11447;50.562;8.504;2022-12-05T06:40:32;3.50;99.90
22562;DHT22;11447;50.562;8.504;2022-12-05T06:42:59;3.40;99.90
22562;DHT22;11447;50.562;8.504;2022-12-05T06:45:26;3.40;99.90
22562;DHT22;11447;50.562;8.504;2022-12-05T06:47:52;3.50;99.90
22562;DHT22;11447;50.562;8.504;2022-12-05T06:50:19;3.50;99.90
22562;DHT22;11447;50.562;8.504;2022-12-05T06:52:45;3.50;99.90
22562;DHT22;11447;50.562;8.504;2022-12-05T06:55:12;3.50;99.90
22562;DHT22;11447;50.562;8.504;2022-12-05T06:57:39;3.50;99.90
22562;DHT22;11447;50.562;8.504;2022-12-05T07:00:07;3.60;99.90
22562;DHT22;11447;50.562;8.504;2022-12-05T07:02:53;3.60;99.90
22562;DHT22;11447;50.562;8.504;2022-12-05T07:05:19;3.60;99.90
22562;DHT22;11447;50.562;8.504;2022-12-05T07:07:46;3.60;99.90
22562;DHT22;11447;50.562;8.504;2022-12-05T07:10:13;3.60;99.90
22562;DHT22;11447;50.562;8.504;2022-12-05T07:12:39;3.60;99.90
22562;DHT22;11447;50.562;8.504;2022-12-05T07:15:06;3.60;99.90
22562;DHT22;11447;50.562;8.504;2022-12-05T07:17:36;3.60;99.90
22562;DHT22;11447;50.562;8.504;2022-12-05T07:20:04;3.60;99.90
22562;DHT22;11447;50.562;8.504;2022-12-05T07:22:33;3.60;99.90
22562;DHT22;11447;50.562;8.504;2022-12-05T07:25:00;3.60;99.90
22562;DHT22;11447;50.562;8.504;2022-12-05T07:27:27;3.60;99.90
22562;DHT22;11447;50.562;8.504;2022-12-05T07:29:54;3.70;99.90
22562;DHT22;11447;50.562;8.504;2022-12-05T07:32:21;3.70;99.90
22562;DHT22;11447;50.562;8.504;2022-12-05T07:34:52;3.60;99.90
22562;DHT22;11447;50.562;8.504;2022-12-05T07:37:21;3.60;99.90
22562;DHT22;11447;50.562;8.504;2022-12-05T07:39:51;3.70;99.90
22562;DHT22;11447;50.562;8.504;2022-12-05T07:42:18;3.70;99.90
22562;DHT22;11447;50.562;8.504;2022-12-05T07:44:46;3.70;99.90
22562;DHT22;11447;50.562;8.504;2022-12-05T07:47:15;3.70;99.90
22562;DHT22;11447;50.562;8.504;2022-12-05T07:49:42;3.60;99.90
22562;DHT22;11447;50.562;8.504;2022-12-05T07:52:08;3.60;99.90
22562;DHT22;11447;50.562;8.504;2022-12-05T07:54:35;3.70;99.90
22562;DHT22;11447;50.562;8.504;2022-12-05T07:57:04;3.70;99.90
22562;DHT22;11447;50.562;8.504;2022-12-05T07:59:31;3.60;99.90
22562;DHT22;11447;50.562;8.504;2022-12-05T08:02:00;3.70;99.90
22562;DHT22;11447;50.562;8.504;2022-12-05T08:04:26;3.70;99.90
22562;DHT22;11447;50.562;8.504;2022-12-05T08:06:53;3.70;99.90
22562;DHT22;11447;50.562;8.504;2022-12-05T08:09:19;3.70;99.90
22562;DHT22;11447;50.562;8.504;2022-12-05T08:11:48;3.70;99.90
22562;DHT22;11447;50.562;8.504;2022-12-05T08:14:18;3.70;99.90
22562;DHT22;11447;50.562;8.504;2022-12-05T08:16:45;3.70;99.90
22562;DHT22;11447;50.562;8.504;2022-12-05T08:19:12;3.70;99.90
22562;DHT22;11447;50.562;8.504;2022-12-05T08:21:39;3.70;99.90
22562;DHT22;11447;50.562;8.504;2022-12-05T08:24:08;3.80;99.90
22562;DHT22;11447;50.562;8.504;2022-12-05T08:26:37;3.80;99.90
22562;DHT22;11447;50.562;8.504;2022-12-05T08:29:11;3.80;99.90
22562;DHT22;11447;50.562;8.504;2022-12-05T08:31:39;3.80;99.90
22562;DHT22;11447;50.562;8.504;2022-12-05T08:34:06;3.80;99.90
22562;DHT22;11447;50.562;8.504;2022-12-05T08:36:33;3.70;99.90
22562;DHT22;11447;50.562;8.504;2022-12-05T08:39:02;3.80;99.90
22562;DHT22;11447;50.562;8.504;2022-12-05T08:41:31;3.70;99.90
22562;DHT22;11447;50.562;8.504;2022-12-05T08:44:02;3.80;99.90
22562;DHT22;11447;50.562;8.504;2022-12-05T08:46:32;3.80;99.90
22562;DHT22;11447;50.562;8.504;2022-12-05T08:48:58;3.80;99.90
22562;DHT22;11447;50.562;8.504;2022-12-05T08:51:27;3.80;99.90
22562;DHT22;11447;50.562;8.504;2022-12-05T08:53:56;3.80;99.90
22562;DHT22;11447;50.562;8.504;2022-12-05T08:56:23;3.80;99.90
22562;DHT22;11447;50.562;8.504;2022-12-05T08:58:53;3.80;99.90
22562;DHT22;11447;50.562;8.504;2022-12-05T09:01:26;3.80;99.90
22562;DHT22;11447;50.562;8.504;2022-12-05T09:04:00;3.90;99.90
22562;DHT22;11447;50.562;8.504;2022-12-05T09:06:27;3.90;99.90
22562;DHT22;11447;50.562;8.504;2022-12-05T09:08:57;3.90;99.90
22562;DHT22;11447;50.562;8.504;2022-12-05T09:11:27;3.90;99.90
22562;DHT22;11447;50.562;8.504;2022-12-05T09:13:54;3.90;99.90
22562;DHT22;11447;50.562;8.504;2022-12-05T09:16:26;3.90;99.90
22562;DHT22;11447;50.562;8.504;2022-12-05T09:19:02;3.90;99.90
22562;DHT22;11447;50.562;8.504;2022-12-05T09:21:29;3.90;99.90
22562;DHT22;11447;50.562;8.504;2022-12-05T09:23:58;3.90;99.90
22562;DHT22;11447;50.562;8.504;2022-12-05T09:26:26;3.90;99.90
22562;DHT22;11447;50.562;8.504;2022-12-05T09:28:53;4.00;99.90
22562;DHT22;11447;50.562;8.504;2022-12-05T09:31:23;4.00;99.90
22562;DHT22;11447;50.562;8.504;2022-12-05T09:33:53;3.90;99.90
22562;DHT22;11447;50.562;8.504;2022-12-05T09:36:23;3.90;99.90
22562;DHT22;11447;50.562;8.504;2022-12-05T09:38:51;4.00;99.90
22562;DHT22;11447;50.562;8.504;2022-12-05T09:47:00;4.00;99.90
22562;DHT22;11447;50.562;8.504;2022-12-05T09:49:30;4.00;99.90
22562;DHT22;11447;50.562;8.504;2022-12-05T09:51:57;3.90;99.90
22562;DHT22;11447;50.562;8.504;2022-12-05T09:54:25;4.00;99.90
22562;DHT22;11447;50.562;8.504;2022-12-05T09:56:52;4.00;99.90
22562;DHT22;11447;50.562;8.504;2022-12-05T09:59:19;4.00;99.90
22562;DHT22;11447;50.562;8.504;2022-12-05T10:17:33;4.00;99.90
22562;DHT22;11447;50.562;8.504;2022-12-05T10:22:39;4.00;99.90
22562;DHT22;11447;50.562;8.504;2022-12-05T10:25:08;4.00;99.90
22562;DHT22;11447;50.562;8.504;2022-12-05T10:27:39;4.00;99.90
22562;DHT22;11447;50.562;8.504;2022-12-05T10:30:18;4.00;99.90
22562;DHT22;11447;50.562;8.504;2022-12-05T10:35:31;4.10;99.90
22562;DHT22;11447;50.562;8.504;2022-12-05T10:38:02;4.10;99.90
22562;DHT22;11447;50.562;8.504;2022-12-05T10:40:36;4.10;99.90
22562;DHT22;11447;50.562;8.504;2022-12-05T10:43:04;4.10;99.90
22562;DHT22;11447;50.562;8.504;2022-12-05T10:45:34;4.20;99.90
22562;DHT22;11447;50.562;8.504;2022-12-05T10:48:02;4.20;99.90
22562;DHT22;11447;50.562;8.504;2022-12-05T10:52:56;4.20;99.90
22562;DHT22;11447;50.562;8.504;2022-12-05T10:55:25;4.20;99.90
22562;DHT22;11447;50.562;8.504;2022-12-05T10:58:08;4.30;99.90
22562;DHT22;11447;50.562;8.504;2022-12-05T11:00:46;4.20;99.90
22562;DHT22;11447;50.562;8.504;2022-12-05T11:03:28;4.30;99.90
22562;DHT22;11447;50.562;8.504;2022-12-05T11:08:50;4.30;99.90
22562;DHT22;11447;50.562;8.504;2022-12-05T11:11:35;4.30;99.90
22562;DHT22;11447;50.562;8.504;2022-12-05T11:14:03;4.40;99.90
22562;DHT22;11447;50.562;8.504;2022-12-05T11:16:31;4.40;99.90
22562;DHT22;11447;50.562;8.504;2022-12-05T11:22:00;4.40;99.90
22562;DHT22;11447;50.562;8.504;2022-12-05T11:24:31;4.50;99.90
22562;DHT22;11447;50.562;8.504;2022-12-05T11:26:59;4.50;99.90
22562;DHT22;11447;50.562;8.504;2022-12-05T11:29:30;4.50;99.90
22562;DHT22;11447;50.562;8.504;2022-12-05T11:31:59;4.50;99.90
22562;DHT22;11447;50.562;8.504;2022-12-05T11:37:04;4.50;99.90
22562;DHT22;11447;50.562;8.504;2022-12-05T11:39:31;4.50;99.90
22562;DHT22;11447;50.562;8.504;2022-12-05T11:42:07;4.50;99.90
22562;DHT22;11447;50.562;8.504;2022-12-05T11:57:35;4.60;99.90
22562;DHT22;11447;50.562;8.504;2022-12-05T12:05:26;4.70;99.90
22562;DHT22;11447;50.562;8.504;2022-12-05T12:10:42;4.70;99.90
22562;DHT22;11447;50.562;8.504;2022-12-05T12:23:51;4.80;99.90
22562;DHT22;11447;50.562;8.504;2022-12-05T12:31:37;4.80;99.90
22562;DHT22;11447;50.562;8.504;2022-12-05T12:34:14;4.80;99.90
22562;DHT22;11447;50.562;8.504;2022-12-05T12:36:45;4.80;99.90
22562;DHT22;11447;50.562;8.504;2022-12-05T12:44:48;4.80;99.90
22562;DHT22;11447;50.562;8.504;2022-12-05T12:50:21;4.80;99.90
22562;DHT22;11447;50.562;8.504;2022-12-05T12:55:39;4.80;99.90
22562;DHT22;11447;50.562;8.504;2022-12-05T12:58:30;4.80;99.90
22562;DHT22;11447;50.562;8.504;2022-12-05T13:01:05;4.80;99.90
22562;DHT22;11447;50.562;8.504;2022-12-05T13:03:43;4.80;99.90
22562;DHT22;11447;50.562;8.504;2022-12-05T13:06:24;4.80;99.90
22562;DHT22;11447;50.562;8.504;2022-12-05T13:08:58;4.80;99.90
22562;DHT22;11447;50.562;8.504;2022-12-05T13:11:32;4.80;99.90
22562;DHT22;11447;50.562;8.504;2022-12-05T13:14:00;4.80;99.90
22562;DHT22;11447;50.562;8.504;2022-12-05T13:16:29;4.80;99.90
22562;DHT22;11447;50.562;8.504;2022-12-05T13:18:56;4.80;99.90
22562;DHT22;11447;50.562;8.504;2022-12-05T13:21:24;4.80;99.90
22562;DHT22;11447;50.562;8.504;2022-12-05T13:23:54;4.80;99.90
22562;DHT22;11447;50.562;8.504;2022-12-05T13:26:22;4.80;99.90
22562;DHT22;11447;50.562;8.504;2022-12-05T13:28:58;4.80;99.90
22562;DHT22;11447;50.562;8.504;2022-12-05T13:31:42;4.80;99.90
22562;DHT22;11447;50.562;8.504;2022-12-05T13:37:16;4.80;99.90
22562;DHT22;11447;50.562;8.504;2022-12-05T13:40:02;4.80;99.90
22562;DHT22;11447;50.562;8.504;2022-12-05T13:42:47;4.80;99.90
22562;DHT22;11447;50.562;8.504;2022-12-05T13:45:26;4.80;99.90
22562;DHT22;11447;50.562;8.504;2022-12-05T13:50:27;4.80;99.90
22562;DHT22;11447;50.562;8.504;2022-12-05T13:53:05;4.80;99.90
22562;DHT22;11447;50.562;8.504;2022-12-05T13:55:34;4.70;99.90
22562;DHT22;11447;50.562;8.504;2022-12-05T14:00:41;4.70;99.90
22562;DHT22;11447;50.562;8.504;2022-12-05T14:05:42;4.70;99.90
22562;DHT22;11447;50.562;8.504;2022-12-05T14:08:48;4.70;99.90
22562;DHT22;11447;50.562;8.504;2022-12-05T14:34:46;4.70;99.90
22562;DHT22;11447;50.562;8.504;2022-12-05T14:39:42;4.60;99.90
22562;DHT22;11447;50.562;8.504;2022-12-05T14:44:49;4.60;99.90
22562;DHT22;11447;50.562;8.504;2022-12-05T14:47:17;4.60;99.90
22562;DHT22;11447;50.562;8.504;2022-12-05T14:49:58;4.60;99.90
22562;DHT22;11447;50.562;8.504;2022-12-05T14:52:28;4.60;99.90
22562;DHT22;11447;50.562;8.504;2022-12-05T14:55:04;4.60;99.90
22562;DHT22;11447;50.562;8.504;2022-12-05T14:57:34;4.60;99.90
22562;DHT22;11447;50.562;8.504;2022-12-05T15:00:04;4.70;99.90
22562;DHT22;11447;50.562;8.504;2022-12-05T15:02:38;4.70;99.90
22562;DHT22;11447;50.562;8.504;2022-12-05T15:05:19;4.60;99.90
22562;DHT22;11447;50.562;8.504;2022-12-05T15:07:47;4.60;99.90
22562;DHT22;11447;50.562;8.504;2022-12-05T15:10:15;4.60;99.90
22562;DHT22;11447;50.562;8.504;2022-12-05T15:12:47;4.60;99.90
22562;DHT22;11447;50.562;8.504;2022-12-05T15:15:18;4.60;99.90
22562;DHT22;11447;50.562;8.504;2022-12-05T15:17:49;4.60;99.90
22562;DHT22;11447;50.562;8.504;2022-12-05T15:25:54;4.70;99.90
22562;DHT22;11447;50.562;8.504;2022-12-05T15:31:32;4.60;99.90
22562;DHT22;11447;50.562;8.504;2022-12-05T15:34:02;4.60;99.90
22562;DHT22;11447;50.562;8.504;2022-12-05T15:36:41;4.60;99.90
22562;DHT22;11447;50.562;8.504;2022-12-05T15:39:19;4.60;99.90
22562;DHT22;11447;50.562;8.504;2022-12-05T15:41:49;4.60;99.90
22562;DHT22;11447;50.562;8.504;2022-12-05T15:44:17;4.60;99.90
22562;DHT22;11447;50.562;8.504;2022-12-05T15:46:53;4.60;99.90
22562;DHT22;11447;50.562;8.504;2022-12-05T15:51:52;4.60;99.90
22562;DHT22;11447;50.562;8.504;2022-12-05T15:54:22;4.60;99.90
22562;DHT22;11447;50.562;8.504;2022-12-05T15:57:05;4.60;99.90
22562;DHT22;11447;50.562;8.504;2022-12-05T15:59:39;4.60;99.90
22562;DHT22;11447;50.562;8.504;2022-12-05T16:02:15;4.60;99.90
22562;DHT22;11447;50.562;8.504;2022-12-05T16:04:48;4.60;99.90
22562;DHT22;11447;50.562;8.504;2022-12-05T16:07:15;4.60;99.90
22562;DHT22;11447;50.562;8.504;2022-12-05T16:09:43;4.60;99.90
22562;DHT22;11447;50.562;8.504;2022-12-05T16:12:26;4.60;99.90
22562;DHT22;11447;50.562;8.504;2022-12-05T16:14:56;4.60;99.90
22562;DHT22;11447;50.562;8.504;2022-12-05T16:17:27;4.60;99.90
22562;DHT22;11447;50.562;8.504;2022-12-05T16:20:08;4.60;99.90
22562;DHT22;11447;50.562;8.504;2022-12-05T16:22:41;4.60;99.90
22562;DHT22;11447;50.562;8.504;2022-12-05T16:25:21;4.60;99.90
22562;DHT22;11447;50.562;8.504;2022-12-05T16:28:21;4.60;99.90
22562;DHT22;11447;50.562;8.504;2022-12-05T16:30:57;4.60;99.90
22562;DHT22;11447;50.562;8.504;2022-12-05T16:33:25;4.70;99.90
22562;DHT22;11447;50.562;8.504;2022-12-05T16:35:52;4.60;99.90
22562;DHT22;11447;50.562;8.504;2022-12-05T16:38:22;4.60;99.90
22562;DHT22;11447;50.562;8.504;2022-12-05T16:40:52;4.60;99.90
22562;DHT22;11447;50.562;8.504;2022-12-05T16:46:07;4.60;99.90
22562;DHT22;11447;50.562;8.504;2022-12-05T16:48:46;4.60;99.90
22562;DHT22;11447;50.562;8.504;2022-12-05T16:51:16;4.60;99.90
22562;DHT22;11447;50.562;8.504;2022-12-05T16:53:44;4.60;99.90
22562;DHT22;11447;50.562;8.504;2022-12-05T16:56:15;4.60;99.90
22562;DHT22;11447;50.562;8.504;2022-12-05T16:58:47;4.70;99.90
22562;DHT22;11447;50.562;8.504;2022-12-05T17:01:20;4.60;99.90
22562;DHT22;11447;50.562;8.504;2022-12-05T17:03:48;4.60;99.90
22562;DHT22;11447;50.562;8.504;2022-12-05T17:06:17;4.60;99.90
22562;DHT22;11447;50.562;8.504;2022-12-05T17:08:44;4.60;99.90
22562;DHT22;11447;50.562;8.504;2022-12-05T17:11:13;4.50;99.90
22562;DHT22;11447;50.562;8.504;2022-12-05T17:13:40;4.60;99.90
22562;DHT22;11447;50.562;8.504;2022-12-05T17:16:10;4.60;99.90
22562;DHT22;11447;50.562;8.504;2022-12-05T17:18:37;4.60;99.90
22562;DHT22;11447;50.562;8.504;2022-12-05T17:21:09;4.60;99.90
22562;DHT22;11447;50.562;8.504;2022-12-05T17:23:37;4.60;99.90
22562;DHT22;11447;50.562;8.504;2022-12-05T17:26:12;4.60;99.90
22562;DHT22;11447;50.562;8.504;2022-12-05T17:28:41;4.60;99.90
22562;DHT22;11447;50.562;8.504;2022-12-05T17:31:14;4.70;99.90
22562;DHT22;11447;50.562;8.504;2022-12-05T17:33:43;4.60;99.90
22562;DHT22;11447;50.562;8.504;2022-12-05T17:36:10;4.70;99.90
22562;DHT22;11447;50.562;8.504;2022-12-05T17:38:37;4.70;99.90
22562;DHT22;11447;50.562;8.504;2022-12-05T17:41:03;4.70;99.90
22562;DHT22;11447;50.562;8.504;2022-12-05T17:43:33;4.60;99.90
22562;DHT22;11447;50.562;8.504;2022-12-05T17:46:00;4.60;99.90
22562;DHT22;11447;50.562;8.504;2022-12-05T17:48:26;4.60;99.90
22562;DHT22;11447;50.562;8.504;2022-12-05T17:50:55;4.60;99.90
22562;DHT22;11447;50.562;8.504;2022-12-05T17:53:25;4.60;99.90
22562;DHT22;11447;50.562;8.504;2022-12-05T17:55:54;4.60;99.90
22562;DHT22;11447;50.562;8.504;2022-12-05T17:58:23;4.60;99.90
22562;DHT22;11447;50.562;8.504;2022-12-05T18:00:50;4.60;99.90
22562;DHT22;11447;50.562;8.504;2022-12-05T18:03:17;4.60;99.90
22562;DHT22;11447;50.562;8.504;2022-12-05T18:05:46;4.60;99.90
22562;DHT22;11447;50.562;8.504;2022-12-05T18:08:14;4.60;99.90
22562;DHT22;11447;50.562;8.504;2022-12-05T18:10:45;4.60;99.90
22562;DHT22;11447;50.562;8.504;2022-12-05T18:13:14;4.60;99.90
22562;DHT22;11447;50.562;8.504;2022-12-05T18:15:42;4.60;99.90
22562;DHT22;11447;50.562;8.504;2022-12-05T18:18:10;4.50;99.90
22562;DHT22;11447;50.562;8.504;2022-12-05T18:20:41;4.50;99.90
22562;DHT22;11447;50.562;8.504;2022-12-05T18:23:08;4.50;99.90
22562;DHT22;11447;50.562;8.504;2022-12-05T18:25:34;4.50;99.90
22562;DHT22;11447;50.562;8.504;2022-12-05T18:28:03;4.50;99.90
22562;DHT22;11447;50.562;8.504;2022-12-05T18:30:32;4.50;99.90
22562;DHT22;11447;50.562;8.504;2022-12-05T18:32:59;4.50;99.90
22562;DHT22;11447;50.562;8.504;2022-12-05T18:35:26;4.50;99.90
22562;DHT22;11447;50.562;8.504;2022-12-05T18:38:13;4.50;99.90
22562;DHT22;11447;50.562;8.504;2022-12-05T18:40:42;4.40;99.90
22562;DHT22;11447;50.562;8.504;2022-12-05T18:43:11;4.50;99.90
22562;DHT22;11447;50.562;8.504;2022-12-05T18:45:37;4.50;99.90
22562;DHT22;11447;50.562;8.504;2022-12-05T18:48:07;4.50;99.90
22562;DHT22;11447;50.562;8.504;2022-12-05T18:51:12;4.50;99.90
22562;DHT22;11447;50.562;8.504;2022-12-05T18:53:39;4.50;99.90
22562;DHT22;11447;50.562;8.504;2022-12-05T18:56:07;4.50;99.90
22562;DHT22;11447;50.562;8.504;2022-12-05T18:58:52;4.50;99.90
22562;DHT22;11447;50.562;8.504;2022-12-05T19:01:18;4.50;99.90
22562;DHT22;11447;50.562;8.504;2022-12-05T19:03:50;4.50;99.90
22562;DHT22;11447;50.562;8.504;2022-12-05T19:06:19;4.60;99.90
22562;DHT22;11447;50.562;8.504;2022-12-05T19:09:14;4.60;99.90
22562;DHT22;11447;50.562;8.504;2022-12-05T19:11:43;4.60;99.90
22562;DHT22;11447;50.562;8.504;2022-12-05T19:14:13;4.60;99.90
22562;DHT22;11447;50.562;8.504;2022-12-05T19:16:43;4.60;99.90
22562;DHT22;11447;50.562;8.504;2022-12-05T19:19:11;4.50;99.90